Time;durP1;ratioP1;P1;durP2;ratioP2;P2;SDS_P1;SDS_P2;PMS_P1;PMS_P2;Temp;Humidity;BMP_temperature;BMP_pressure;BME280_temperature;BME280_humidity;BME280_pressure;Samples;Min_cycle;Max_cycle;Signal;HPM_P1;HPM_P2
2023/10/20 00:00:27;;;;;;;5.63;4.80;;;;;;;;;;5096924;27;20224;-77
2023/10/20 00:02:54;;;;;;;4.05;3.35;;;;;;;;;;5098716;27;20576;-77
2023/10/20 00:05:22;;;;;;;3.75;3.45;;;;;;;;;;5093473;28;20203;-78
2023/10/20 00:07:50;;;;;;;3.75;3.45;;;;;;;;;;5090550;28;20208;-76
2023/10/20 00:10:18;;;;;;;4.45;4.05;;;;;;;;;;5092495;28;20231;-78
2023/10/20 00:12:45;;;;;;;4.88;4.38;;;;;;;;;;5095985;28;20204;-77
2023/10/20 00:15:15;;;;;;;5.60;5.03;;;;;;;;;;5084556;28;20197;-78
2023/10/20 00:17:46;;;;;;;4.70;4.10;;;;;;;;;;5099143;28;20303;-78
2023/10/20 00:20:13;;;;;;;4.28;3.88;;;;;;;;;;5100642;28;20274;-77
2023/10/20 00:22:41;;;;;;;6.70;4.28;;;;;;;;;;5103455;28;20201;-77
2023/10/20 00:25:11;;;;;;;5.72;4.80;;;;;;;;;;5100691;28;20302;-75
2023/10/20 00:27:39;;;;;;;10.10;8.32;;;;;;;;;;5099333;28;20756;-77
2023/10/20 00:30:09;;;;;;;10.15;9.05;;;;;;;;;;5102102;28;20224;-76
2023/10/20 00:32:40;;;;;;;5.90;5.30;;;;;;;;;;5081976;28;20204;-74
2023/10/20 00:35:09;;;;;;;5.97;4.25;;;;;;;;;;5104343;28;20291;-74
2023/10/20 00:37:37;;;;;;;4.57;4.18;;;;;;;;;;5099272;27;20228;-76
2023/10/20 00:40:07;;;;;;;5.15;4.40;;;;;;;;;;5107492;27;20232;-76
2023/10/20 00:42:35;;;;;;;4.50;3.70;;;;;;;;;;5104128;27;20196;-75
2023/10/20 00:45:04;;;;;;;4.25;3.90;;;;;;;;;;5091453;28;20262;-75
2023/10/20 00:47:32;;;;;;;6.22;4.25;;;;;;;;;;5104791;28;20223;-77
2023/10/20 00:49:59;;;;;;;5.15;4.65;;;;;;;;;;5103930;28;20232;-76
2023/10/20 00:52:29;;;;;;;4.80;4.30;;;;;;;;;;5105413;27;20200;-76
2023/10/20 00:54:56;;;;;;;6.53;4.22;;;;;;;;;;5098170;28;20661;-77
2023/10/20 00:57:24;;;;;;;4.50;4.10;;;;;;;;;;5104291;27;21544;-75
2023/10/20 00:59:51;;;;;;;6.32;4.53;;;;;;;;;;5103120;27;20220;-73
2023/10/20 01:02:20;;;;;;;5.03;4.28;;;;;;;;;;5110553;27;20204;-76
2023/10/20 01:04:48;;;;;;;5.25;4.75;;;;;;;;;;5101706;27;20738;-76
2023/10/20 01:07:15;;;;;;;9.07;6.78;;;;;;;;;;5094828;27;20666;-75
2023/10/20 01:09:43;;;;;;;5.80;5.30;;;;;;;;;;5082803;28;22469;-76
2023/10/20 01:12:10;;;;;;;5.53;5.03;;;;;;;;;;5101097;27;20254;-75
2023/10/20 01:14:38;;;;;;;5.80;4.97;;;;;;;;;;5100260;27;20213;-75
2023/10/20 01:17:05;;;;;;;5.65;5.15;;;;;;;;;;5098518;27;20220;-77
2023/10/20 01:19:33;;;;;;;6.97;5.88;;;;;;;;;;5100078;28;20225;-78
2023/10/20 01:22:00;;;;;;;6.90;5.82;;;;;;;;;;5095832;28;20250;-80
2023/10/20 01:24:27;;;;;;;6.03;5.53;;;;;;;;;;5108351;27;20196;-77
2023/10/20 01:26:55;;;;;;;6.75;6.10;;;;;;;;;;5101852;28;20685;-79
2023/10/20 01:29:22;;;;;;;9.05;8.13;;;;;;;;;;5099277;27;20228;-79
2023/10/20 01:31:49;;;;;;;8.43;6.80;;;;;;;;;;5093590;27;20209;-78
2023/10/20 01:34:16;;;;;;;9.43;7.22;;;;;;;;;;5097511;27;20204;-78
2023/10/20 01:36:44;;;;;;;8.25;6.65;;;;;;;;;;5088633;27;20215;-78
2023/10/20 01:39:11;;;;;;;6.93;6.07;;;;;;;;;;5103538;27;20732;-77
2023/10/20 01:41:39;;;;;;;7.05;6.35;;;;;;;;;;5096283;27;20196;-78
2023/10/20 01:44:06;;;;;;;6.78;5.95;;;;;;;;;;5100118;27;20230;-78
2023/10/20 01:46:33;;;;;;;6.45;5.85;;;;;;;;;;5094646;28;20196;-77
2023/10/20 01:49:01;;;;;;;8.95;7.10;;;;;;;;;;5095766;28;20307;-79
2023/10/20 01:51:28;;;;;;;9.10;6.80;;;;;;;;;;5092838;27;20207;-79
2023/10/20 01:53:55;;;;;;;7.65;6.22;;;;;;;;;;5092838;27;20215;-80
2023/10/20 01:56:23;;;;;;;7.90;7.10;;;;;;;;;;5097968;28;20646;-79
2023/10/20 01:58:51;;;;;;;9.35;7.00;;;;;;;;;;5107909;27;20215;-78
2023/10/20 02:01:19;;;;;;;8.48;7.63;;;;;;;;;;5105383;27;20253;-77
2023/10/20 02:03:47;;;;;;;9.80;7.55;;;;;;;;;;5105629;27;20240;-77
2023/10/20 02:06:14;;;;;;;10.52;7.80;;;;;;;;;;5095235;28;20200;-77
2023/10/20 02:08:41;;;;;;;13.10;7.63;;;;;;;;;;5100463;27;20216;-76
2023/10/20 02:11:10;;;;;;;9.50;7.90;;;;;;;;;;5110682;27;20623;-79
2023/10/20 02:17:00;;;;;;;8.73;7.43;;;;;;;;;;5100322;28;20289;-77
2023/10/20 02:19:27;;;;;;;20.50;15.68;;;;;;;;;;5098439;28;20212;-77
2023/10/20 02:21:55;;;;;;;15.38;11.80;;;;;;;;;;5094979;28;20196;-79
2023/10/20 02:24:22;;;;;;;10.57;9.48;;;;;;;;;;5099049;28;20718;-78
2023/10/20 02:26:50;;;;;;;12.02;8.85;;;;;;;;;;5101046;27;20223;-78
2023/10/20 02:29:17;;;;;;;10.40;9.30;;;;;;;;;;5104688;28;20315;-78
2023/10/20 02:31:45;;;;;;;12.68;9.75;;;;;;;;;;5083916;28;20233;-78
2023/10/20 02:34:12;;;;;;;12.88;10.10;;;;;;;;;;5102417;28;20613;-79
2023/10/20 02:36:39;;;;;;;11.70;10.18;;;;;;;;;;5075670;28;20212;-76
2023/10/20 02:39:06;;;;;;;10.65;9.55;;;;;;;;;;5096308;28;20220;-79
2023/10/20 02:41:34;;;;;;;11.23;9.52;;;;;;;;;;5086729;28;20230;-79
2023/10/20 02:44:01;;;;;;;11.40;9.30;;;;;;;;;;5100416;27;20220;-78
2023/10/20 02:46:28;;;;;;;19.77;14.88;;;;;;;;;;5111634;27;20215;-79
2023/10/20 02:48:56;;;;;;;19.40;14.35;;;;;;;;;;5096526;28;20272;-80
2023/10/20 02:51:23;;;;;;;10.20;9.07;;;;;;;;;;5095033;28;20200;-79
2023/10/20 02:53:50;;;;;;;10.70;8.75;;;;;;;;;;5094897;27;20208;-79
2023/10/20 02:56:18;;;;;;;9.95;8.90;;;;;;;;;;5099836;27;20212;-78
2023/10/20 02:58:47;;;;;;;9.02;8.13;;;;;;;;;;5106418;27;20222;-77
2023/10/20 03:01:15;;;;;;;15.30;11.55;;;;;;;;;;5103543;27;20192;-79
2023/10/20 03:03:43;;;;;;;14.98;11.57;;;;;;;;;;5099260;28;20215;-77
2023/10/20 03:06:11;;;;;;;12.57;10.57;;;;;;;;;;5096189;28;20219;-79
2023/10/20 03:08:39;;;;;;;10.20;9.20;;;;;;;;;;5107198;27;20258;-78
2023/10/20 03:11:07;;;;;;;13.57;9.38;;;;;;;;;;5099641;27;20204;-78
2023/10/20 03:13:35;;;;;;;10.45;9.27;;;;;;;;;;5095444;28;20204;-80
2023/10/20 03:16:02;;;;;;;10.65;9.52;;;;;;;;;;5094444;27;23014;-78
2023/10/20 03:18:29;;;;;;;10.75;9.20;;;;;;;;;;5101877;28;20252;-78
2023/10/20 03:21:03;;;;;;;11.52;10.25;;;;;;;;;;5094939;28;20193;-78
2023/10/20 03:23:31;;;;;;;17.52;11.15;;;;;;;;;;5099738;27;20196;-76
2023/10/20 03:25:58;;;;;;;13.30;10.32;;;;;;;;;;5096640;28;20197;-80
2023/10/20 03:28:26;;;;;;;13.70;11.13;;;;;;;;;;5094663;27;20204;-80
2023/10/20 03:30:54;;;;;;;15.27;10.88;;;;;;;;;;5098724;28;20244;-79
2023/10/20 03:33:21;;;;;;;14.10;11.07;;;;;;;;;;5100061;28;20204;-79
2023/10/20 03:35:48;;;;;;;14.48;12.07;;;;;;;;;;5082786;27;20733;-79
2023/10/20 03:38:16;;;;;;;15.20;11.88;;;;;;;;;;5080749;27;20768;-78
2023/10/20 03:40:46;;;;;;;15.50;12.30;;;;;;;;;;5088656;28;20240;-78
2023/10/20 03:43:13;;;;;;;13.95;11.07;;;;;;;;;;5091322;28;20193;-79
2023/10/20 03:45:51;;;;;;;12.50;11.20;;;;;;;;;;5094372;28;20200;-78
2023/10/20 03:48:19;;;;;;;15.77;12.05;;;;;;;;;;5102148;28;20744;-79
2023/10/20 03:50:48;;;;;;;13.52;11.35;;;;;;;;;;5098526;28;20422;-80
2023/10/20 03:53:18;;;;;;;13.93;11.10;;;;;;;;;;5088923;28;20303;-80
2023/10/20 03:56:01;;;;;;;13.48;10.88;;;;;;;;;;5089783;27;20223;-79
2023/10/20 03:58:29;;;;;;;12.70;11.40;;;;;;;;;;5105275;28;20747;-80
2023/10/20 04:01:03;;;;;;;15.40;11.55;;;;;;;;;;5076114;28;20200;-80
2023/10/20 04:03:30;;;;;;;13.68;11.55;;;;;;;;;;5100259;28;20200;-79
2023/10/20 04:05:58;;;;;;;14.27;12.07;;;;;;;;;;5100316;28;20200;-81
2023/10/20 04:08:25;;;;;;;12.50;11.07;;;;;;;;;;5095598;28;20204;-79
2023/10/20 04:10:56;;;;;;;13.35;11.95;;;;;;;;;;5089140;27;20208;-75
2023/10/20 04:13:24;;;;;;;12.93;11.40;;;;;;;;;;5094032;28;20641;-74
2023/10/20 04:15:52;;;;;;;13.60;11.20;;;;;;;;;;5075806;28;20205;-75
2023/10/20 04:18:20;;;;;;;12.77;10.65;;;;;;;;;;5094671;28;20216;-74
2023/10/20 04:20:50;;;;;;;12.18;10.98;;;;;;;;;;5077240;28;20557;-75
2023/10/20 04:23:18;;;;;;;15.57;10.75;;;;;;;;;;5095546;28;20200;-75
2023/10/20 04:25:54;;;;;;;11.77;10.57;;;;;;;;;;5100171;28;20825;-74
2023/10/20 04:28:42;;;;;;;11.55;10.35;;;;;;;;;;5094568;28;20251;-74
2023/10/20 04:58:01;;;;;;;9.15;7.85;;;;;;;;;;5088933;28;20223;-76
2023/10/20 05:00:34;;;;;;;9.00;7.85;;;;;;;;;;5095060;28;20223;-75
2023/10/20 05:10:55;;;;;;;9.18;7.55;;;;;;;;;;5092033;28;20220;-76
2023/10/20 05:13:23;;;;;;;8.52;7.53;;;;;;;;;;5102722;28;20553;-77
2023/10/20 05:15:50;;;;;;;8.48;7.70;;;;;;;;;;5087675;28;20661;-77
2023/10/20 05:18:18;;;;;;;8.05;7.35;;;;;;;;;;5105286;28;20251;-77
2023/10/20 05:20:46;;;;;;;9.32;8.02;;;;;;;;;;5110974;27;20203;-76
2023/10/20 05:23:16;;;;;;;9.85;8.85;;;;;;;;;;5102828;28;20204;-77
2023/10/20 05:25:47;;;;;;;9.70;8.70;;;;;;;;;;5095247;28;20215;-76
2023/10/20 05:28:15;;;;;;;10.40;9.27;;;;;;;;;;5107609;28;20235;-76
2023/10/20 05:30:44;;;;;;;9.65;8.63;;;;;;;;;;5127892;27;20549;-77
2023/10/20 05:33:11;;;;;;;10.57;9.13;;;;;;;;;;5112501;28;20684;-76
2023/10/20 05:35:40;;;;;;;10.82;9.27;;;;;;;;;;5094310;28;20213;-75
2023/10/20 05:38:08;;;;;;;11.38;9.30;;;;;;;;;;5112759;27;20235;-75
2023/10/20 05:40:37;;;;;;;9.98;8.63;;;;;;;;;;5114688;28;20676;-76
2023/10/20 05:43:08;;;;;;;9.88;8.88;;;;;;;;;;5113429;28;20207;-76
2023/10/20 05:45:39;;;;;;;11.57;10.38;;;;;;;;;;5101792;28;20224;-77
2023/10/20 05:48:07;;;;;;;10.30;9.25;;;;;;;;;;5104295;28;20299;-76
2023/10/20 05:50:36;;;;;;;11.73;9.93;;;;;;;;;;5108930;28;20227;-77
2023/10/20 05:53:03;;;;;;;10.90;9.80;;;;;;;;;;5111561;27;20211;-76
2023/10/20 05:55:32;;;;;;;11.32;10.15;;;;;;;;;;5109953;27;20227;-77
2023/10/20 05:57:59;;;;;;;11.85;10.65;;;;;;;;;;5109008;27;20224;-77
2023/10/20 06:00:26;;;;;;;12.15;10.90;;;;;;;;;;5106240;28;20647;-76
2023/10/20 06:02:54;;;;;;;12.63;11.27;;;;;;;;;;5114395;28;20204;-77
2023/10/20 06:05:22;;;;;;;12.43;11.13;;;;;;;;;;5108982;27;20231;-75
2023/10/20 06:07:50;;;;;;;12.60;11.30;;;;;;;;;;5117282;27;20667;-77
2023/10/20 06:10:23;;;;;;;13.57;12.18;;;;;;;;;;5108145;28;20277;-75
2023/10/20 06:12:51;;;;;;;13.90;12.43;;;;;;;;;;5129203;27;20211;-76
2023/10/20 06:15:21;;;;;;;13.40;11.98;;;;;;;;;;5102626;28;20208;-76
2023/10/20 06:17:49;;;;;;;14.07;12.68;;;;;;;;;;5112542;27;20700;-74
2023/10/20 06:20:18;;;;;;;14.30;12.55;;;;;;;;;;5113990;28;20220;-75
2023/10/20 06:22:45;;;;;;;15.57;13.25;;;;;;;;;;5114113;28;20687;-75
2023/10/20 06:25:13;;;;;;;16.48;14.73;;;;;;;;;;5120244;27;20196;-75
2023/10/20 06:27:45;;;;;;;16.75;13.35;;;;;;;;;;5100620;28;20580;-75
2023/10/20 06:30:22;;;;;;;15.82;14.18;;;;;;;;;;5113379;28;20224;-75
2023/10/20 06:32:56;;;;;;;16.27;14.57;;;;;;;;;;5113299;28;20204;-76
2023/10/20 06:35:33;;;;;;;15.88;14.13;;;;;;;;;;5116081;27;20200;-76
2023/10/20 06:40:37;;;;;;;14.48;13.07;;;;;;;;;;5100950;28;20261;-77
2023/10/20 06:43:04;;;;;;;15.02;13.02;;;;;;;;;;5097005;28;20280;-76
2023/10/20 06:45:31;;;;;;;20.90;15.25;;;;;;;;;;5077263;28;20197;-76
2023/10/20 06:47:59;;;;;;;14.75;13.25;;;;;;;;;;5091883;27;20290;-77
2023/10/20 06:53:41;;;;;;;15.05;13.27;;;;;;;;;;5092690;28;20239;-77
2023/10/20 06:56:09;;;;;;;15.07;13.43;;;;;;;;;;5089651;28;20647;-76
2023/10/20 06:58:43;;;;;;;16.50;14.05;;;;;;;;;;5095568;28;20228;-75
2023/10/20 07:01:10;;;;;;;17.00;15.27;;;;;;;;;;5102945;27;20728;-75
2023/10/20 07:03:38;;;;;;;17.63;15.73;;;;;;;;;;5103640;28;20188;-75
2023/10/20 07:06:09;;;;;;;16.25;14.40;;;;;;;;;;5089466;28;20315;-76
2023/10/20 07:08:36;;;;;;;18.83;14.63;;;;;;;;;;5109285;27;20227;-74
2023/10/20 07:11:04;;;;;;;19.40;14.50;;;;;;;;;;5103244;27;20291;-75
2023/10/20 07:13:35;;;;;;;19.15;16.35;;;;;;;;;;5091343;28;20629;-74
2023/10/20 07:16:02;;;;;;;20.25;15.48;;;;;;;;;;5102786;28;20204;-76
2023/10/20 07:18:29;;;;;;;17.92;16.08;;;;;;;;;;5085109;28;20212;-76
2023/10/20 07:20:57;;;;;;;17.08;15.27;;;;;;;;;;5101327;28;20641;-75
2023/10/20 07:23:25;;;;;;;18.92;16.77;;;;;;;;;;5100181;27;20204;-77
2023/10/20 07:25:53;;;;;;;20.42;17.10;;;;;;;;;;5091707;28;20215;-76
2023/10/20 07:28:21;;;;;;;20.80;18.10;;;;;;;;;;5091117;28;20200;-76
2023/10/20 07:30:49;;;;;;;19.58;17.48;;;;;;;;;;5104938;28;20258;-75
2023/10/20 07:33:17;;;;;;;21.23;18.02;;;;;;;;;;5102809;28;20818;-75
2023/10/20 07:35:44;;;;;;;24.15;19.63;;;;;;;;;;5081759;28;20269;-74
2023/10/20 07:38:12;;;;;;;20.52;18.15;;;;;;;;;;5106865;28;20741;-74
2023/10/20 07:40:40;;;;;;;19.30;17.05;;;;;;;;;;5104262;28;20216;-76
2023/10/20 07:43:08;;;;;;;19.90;17.60;;;;;;;;;;5101247;28;20197;-74
2023/10/20 07:45:40;;;;;;;20.15;18.08;;;;;;;;;;5110674;27;20210;-74
2023/10/20 07:48:08;;;;;;;21.98;18.95;;;;;;;;;;5103936;27;20206;-77
2023/10/20 07:50:35;;;;;;;22.20;18.55;;;;;;;;;;5100712;28;20706;-76
2023/10/20 07:53:03;;;;;;;21.17;18.88;;;;;;;;;;5112454;28;20736;-76
2023/10/20 07:55:31;;;;;;;20.35;18.25;;;;;;;;;;5112220;28;20249;-75
2023/10/20 07:57:58;;;;;;;20.50;18.35;;;;;;;;;;5112859;28;20246;-75
2023/10/20 08:00:25;;;;;;;23.13;17.83;;;;;;;;;;5112572;28;20247;-75
2023/10/20 08:02:53;;;;;;;21.35;18.60;;;;;;;;;;5112704;28;20659;-75
2023/10/20 08:05:25;;;;;;;22.08;19.77;;;;;;;;;;5102240;28;20209;-77
2023/10/20 08:07:54;;;;;;;19.83;17.42;;;;;;;;;;5092149;28;20223;-76
2023/10/20 08:10:22;;;;;;;19.92;17.88;;;;;;;;;;5111937;28;20296;-77
2023/10/20 08:12:49;;;;;;;19.60;17.55;;;;;;;;;;5104364;28;20257;-76
2023/10/20 08:15:16;;;;;;;19.88;17.77;;;;;;;;;;5104965;28;20211;-76
2023/10/20 08:17:45;;;;;;;23.17;19.10;;;;;;;;;;5111576;28;20224;-76
2023/10/20 08:20:13;;;;;;;23.27;20.42;;;;;;;;;;5111736;28;20299;-75
2023/10/20 08:22:40;;;;;;;22.67;20.17;;;;;;;;;;5112357;28;20684;-77
2023/10/20 08:25:08;;;;;;;24.20;19.98;;;;;;;;;;5102430;28;20288;-75
2023/10/20 08:27:36;;;;;;;22.52;19.55;;;;;;;;;;5129931;27;20210;-75
2023/10/20 08:30:07;;;;;;;24.02;20.75;;;;;;;;;;5131957;27;20224;-74
2023/10/20 08:32:40;;;;;;;22.08;19.83;;;;;;;;;;5132874;27;20654;-74
2023/10/20 08:35:08;;;;;;;30.88;23.00;;;;;;;;;;5123747;28;20212;-76
2023/10/20 08:37:38;;;;;;;23.60;17.95;;;;;;;;;;5111438;28;20207;-76
2023/10/20 08:40:12;;;;;;;20.27;18.05;;;;;;;;;;5111618;28;20231;-77
2023/10/20 08:42:40;;;;;;;18.70;16.75;;;;;;;;;;5112373;28;20191;-75
2023/10/20 08:45:08;;;;;;;20.67;18.45;;;;;;;;;;5112048;28;20192;-75
2023/10/20 08:47:35;;;;;;;20.08;18.15;;;;;;;;;;5120869;28;20210;-74
2023/10/20 08:50:07;;;;;;;20.00;17.92;;;;;;;;;;5122455;28;20318;-75
2023/10/20 08:52:34;;;;;;;19.95;17.85;;;;;;;;;;5093525;28;20232;-76
2023/10/20 08:55:07;;;;;;;21.15;18.88;;;;;;;;;;5114640;28;20601;-75
2023/10/20 08:57:34;;;;;;;22.98;19.98;;;;;;;;;;5115839;28;20212;-76
2023/10/20 09:00:01;;;;;;;21.98;19.52;;;;;;;;;;5115871;28;20714;-76
2023/10/20 09:02:38;;;;;;;24.63;19.98;;;;;;;;;;5119300;27;20237;-75
2023/10/20 09:05:06;;;;;;;23.05;20.58;;;;;;;;;;5136253;27;20199;-74
2023/10/20 09:07:50;;;;;;;23.20;20.60;;;;;;;;;;5133917;27;20232;-76
2023/10/20 09:10:17;;;;;;;23.13;20.55;;;;;;;;;;5112213;27;20240;-76
2023/10/20 09:12:45;;;;;;;23.85;21.33;;;;;;;;;;5110784;28;20565;-74
2023/10/20 09:15:12;;;;;;;22.15;19.75;;;;;;;;;;5103890;27;20683;-74
2023/10/20 09:17:39;;;;;;;22.98;20.50;;;;;;;;;;5077136;28;20209;-74
2023/10/20 09:20:11;;;;;;;21.50;19.20;;;;;;;;;;5100473;28;20314;-76
2023/10/20 09:22:38;;;;;;;23.42;20.00;;;;;;;;;;5100924;28;20212;-76
2023/10/20 09:25:10;;;;;;;21.05;18.83;;;;;;;;;;5114020;28;20621;-76
2023/10/20 09:27:40;;;;;;;20.67;18.33;;;;;;;;;;5102401;28;20209;-75
2023/10/20 09:30:10;;;;;;;19.77;17.77;;;;;;;;;;5097573;28;20235;-74
2023/10/20 09:32:40;;;;;;;17.60;15.90;;;;;;;;;;5131432;27;20226;-75
2023/10/20 09:35:08;;;;;;;18.25;16.45;;;;;;;;;;5120038;27;20284;-74
2023/10/20 09:37:36;;;;;;;18.30;16.02;;;;;;;;;;5116334;27;20211;-77
2023/10/20 09:40:07;;;;;;;16.70;15.10;;;;;;;;;;5114657;28;20236;-76
2023/10/20 09:42:46;;;;;;;16.23;14.60;;;;;;;;;;5106234;28;20261;-75
2023/10/20 09:45:17;;;;;;;15.65;13.98;;;;;;;;;;5114532;28;20203;-74
2023/10/20 09:47:45;;;;;;;15.48;13.88;;;;;;;;;;5115326;27;20575;-76
2023/10/20 09:50:18;;;;;;;15.95;12.80;;;;;;;;;;5132616;27;20593;-76
2023/10/20 09:52:45;;;;;;;12.77;11.55;;;;;;;;;;5115102;28;20211;-76
2023/10/20 09:55:13;;;;;;;11.57;10.48;;;;;;;;;;5132673;27;20230;-75
2023/10/20 09:57:41;;;;;;;11.88;10.68;;;;;;;;;;5108209;27;20211;-75
2023/10/20 10:00:08;;;;;;;10.63;9.55;;;;;;;;;;5110163;28;20281;-77
2023/10/20 10:02:36;;;;;;;9.10;8.15;;;;;;;;;;5096474;28;20200;-75
2023/10/20 10:05:03;;;;;;;8.20;7.50;;;;;;;;;;5112246;28;20294;-75
2023/10/20 10:07:34;;;;;;;7.32;6.43;;;;;;;;;;5131218;27;20199;-76
2023/10/20 10:10:02;;;;;;;6.45;5.43;;;;;;;;;;5135175;27;20230;-75
2023/10/20 10:12:33;;;;;;;5.65;4.88;;;;;;;;;;5119892;27;20196;-76
2023/10/20 10:15:12;;;;;;;4.65;4.20;;;;;;;;;;5127056;27;20267;-76
2023/10/20 10:17:45;;;;;;;4.43;4.13;;;;;;;;;;5119194;27;20211;-75
2023/10/20 10:20:20;;;;;;;4.18;3.28;;;;;;;;;;5114055;28;20236;-76
2023/10/20 10:22:47;;;;;;;2.42;2.30;;;;;;;;;;5105590;28;20294;-74
2023/10/20 10:25:33;;;;;;;2.72;2.53;;;;;;;;;;5114284;28;20211;-77
2023/10/20 10:28:20;;;;;;;2.47;2.28;;;;;;;;;;5129030;27;20207;-74
2023/10/20 10:30:54;;;;;;;2.58;2.05;;;;;;;;;;5093868;28;20252;-76
2023/10/20 10:33:22;;;;;;;2.13;1.60;;;;;;;;;;5095199;28;20188;-75
2023/10/20 10:36:03;;;;;;;2.92;2.08;;;;;;;;;;5129033;27;20283;-76
2023/10/20 10:38:30;;;;;;;2.20;2.10;;;;;;;;;;5113617;28;20222;-74
2023/10/20 10:40:58;;;;;;;2.53;2.33;;;;;;;;;;5113776;28;20181;-74
2023/10/20 10:43:30;;;;;;;2.53;2.40;;;;;;;;;;5114009;28;20834;-76
2023/10/20 10:45:57;;;;;;;1.90;1.80;;;;;;;;;;5126226;27;20222;-77
2023/10/20 10:48:29;;;;;;;1.77;1.67;;;;;;;;;;5124496;27;20196;-76
2023/10/20 10:50:57;;;;;;;1.67;1.10;;;;;;;;;;5121627;27;20295;-75
2023/10/20 10:56:46;;;;;;;0.90;0.90;;;;;;;;;;5102897;28;20334;-74
2023/10/20 10:59:14;;;;;;;3.53;1.52;;;;;;;;;;5113523;28;20668;-76
2023/10/20 11:01:42;;;;;;;1.20;1.10;;;;;;;;;;5131287;27;20199;-75
2023/10/20 11:04:10;;;;;;;2.50;1.02;;;;;;;;;;5092619;28;20197;-74
2023/10/20 11:06:38;;;;;;;1.48;0.80;;;;;;;;;;5102610;28;20287;-75
2023/10/20 11:09:08;;;;;;;0.95;0.95;;;;;;;;;;5099558;28;20236;-76
2023/10/20 11:11:45;;;;;;;1.55;1.10;;;;;;;;;;5101872;28;20286;-76
2023/10/20 11:14:13;;;;;;;0.90;0.90;;;;;;;;;;5103848;27;20252;-77
2023/10/20 11:16:40;;;;;;;0.90;0.90;;;;;;;;;;5100947;28;20203;-77
2023/10/20 11:19:07;;;;;;;0.73;0.70;;;;;;;;;;5100984;27;20224;-76
2023/10/20 11:21:45;;;;;;;1.42;0.80;;;;;;;;;;5114322;27;20200;-77
2023/10/20 11:24:12;;;;;;;0.82;0.82;;;;;;;;;;5102643;27;20198;-74
2023/10/20 11:26:39;;;;;;;0.73;0.73;;;;;;;;;;5101319;28;20207;-75
2023/10/20 11:29:08;;;;;;;0.52;0.52;;;;;;;;;;5096522;28;20231;-78
2023/10/20 11:31:37;;;;;;;0.57;0.57;;;;;;;;;;5096298;28;20269;-77
2023/10/20 11:34:04;;;;;;;0.57;0.57;;;;;;;;;;5107370;28;20204;-78
2023/10/20 11:36:32;;;;;;;3.58;0.70;;;;;;;;;;5077192;28;20272;-78
2023/10/20 11:39:00;;;;;;;0.60;0.60;;;;;;;;;;5085052;28;20631;-80
2023/10/20 11:41:27;;;;;;;0.40;0.40;;;;;;;;;;5093351;28;20204;-78
2023/10/20 11:43:54;;;;;;;0.40;0.40;;;;;;;;;;5090506;28;20208;-78
2023/10/20 11:46:21;;;;;;;0.40;0.40;;;;;;;;;;5090139;28;20200;-77
2023/10/20 11:48:49;;;;;;;1.15;0.45;;;;;;;;;;5101669;28;20312;-78
2023/10/20 11:51:16;;;;;;;0.50;0.50;;;;;;;;;;5106913;28;20289;-77
2023/10/20 11:53:43;;;;;;;0.82;0.50;;;;;;;;;;5103696;27;20257;-77
2023/10/20 11:56:11;;;;;;;0.32;0.32;;;;;;;;;;5079064;28;20280;-80
2023/10/20 11:58:38;;;;;;;0.40;0.40;;;;;;;;;;5088573;28;20897;-77
2023/10/20 12:01:06;;;;;;;1.88;0.50;;;;;;;;;;5076216;28;20208;-76
2023/10/20 12:03:33;;;;;;;0.47;0.47;;;;;;;;;;5073597;28;20196;-79
2023/10/20 12:06:01;;;;;;;0.55;0.50;;;;;;;;;;5091499;28;20668;-78
2023/10/20 12:08:29;;;;;;;0.60;0.60;;;;;;;;;;5094389;28;20206;-76
2023/10/20 12:10:56;;;;;;;0.40;0.40;;;;;;;;;;5097612;28;20208;-76
2023/10/20 12:13:24;;;;;;;0.40;0.40;;;;;;;;;;5090712;28;20211;-78
2023/10/20 12:15:51;;;;;;;0.40;0.40;;;;;;;;;;5090086;28;20264;-78
2023/10/20 12:18:19;;;;;;;1.25;0.45;;;;;;;;;;5078546;28;20621;-77
2023/10/20 12:20:47;;;;;;;0.40;0.40;;;;;;;;;;5095401;28;20778;-77
2023/10/20 12:23:15;;;;;;;0.30;0.30;;;;;;;;;;5072630;28;20656;-79
2023/10/20 12:25:42;;;;;;;0.60;0.60;;;;;;;;;;5088731;28;20202;-79
2023/10/20 12:28:10;;;;;;;0.50;0.50;;;;;;;;;;5091797;28;20200;-78
2023/10/20 12:30:37;;;;;;;0.20;0.20;;;;;;;;;;5094623;28;20657;-77
2023/10/20 12:33:08;;;;;;;0.80;0.60;;;;;;;;;;5073904;28;20203;-79
2023/10/20 12:35:35;;;;;;;1.55;0.50;;;;;;;;;;5093497;28;20200;-78
2023/10/20 12:38:03;;;;;;;0.30;0.30;;;;;;;;;;5098256;28;20223;-77
2023/10/20 12:40:34;;;;;;;0.30;0.30;;;;;;;;;;5092141;28;20256;-79
2023/10/20 12:43:05;;;;;;;0.80;0.40;;;;;;;;;;5098388;28;20196;-76
2023/10/20 12:45:32;;;;;;;1.25;0.50;;;;;;;;;;5094873;28;20621;-79
2023/10/20 12:48:01;;;;;;;0.40;0.40;;;;;;;;;;5083569;28;20200;-78
2023/10/20 12:50:32;;;;;;;2.00;0.50;;;;;;;;;;5070002;28;20225;-79
2023/10/20 12:53:03;;;;;;;0.45;0.45;;;;;;;;;;5091380;28;20873;-78
2023/10/20 12:55:33;;;;;;;0.43;0.43;;;;;;;;;;5089962;28;20217;-79
2023/10/20 12:58:01;;;;;;;0.40;0.40;;;;;;;;;;5087246;28;20277;-78
2023/10/20 13:00:29;;;;;;;0.30;0.30;;;;;;;;;;5073551;28;20235;-79
2023/10/20 13:02:56;;;;;;;0.40;0.40;;;;;;;;;;5087243;28;20208;-78
2023/10/20 13:05:24;;;;;;;0.30;0.30;;;;;;;;;;5086525;28;20204;-78
2023/10/20 13:07:51;;;;;;;0.30;0.30;;;;;;;;;;5063084;28;20204;-77
2023/10/20 13:10:24;;;;;;;0.30;0.30;;;;;;;;;;5093279;28;20945;-78
2023/10/20 13:12:52;;;;;;;0.40;0.40;;;;;;;;;;5081900;28;20205;-79
2023/10/20 13:15:20;;;;;;;0.50;0.50;;;;;;;;;;5073747;28;20200;-77
2023/10/20 13:17:47;;;;;;;0.57;0.47;;;;;;;;;;5094087;28;20251;-74
2023/10/20 13:20:14;;;;;;;0.50;0.50;;;;;;;;;;5072940;28;20608;-76
2023/10/20 13:22:42;;;;;;;0.60;0.60;;;;;;;;;;5073441;28;20212;-75
2023/10/20 13:25:09;;;;;;;0.40;0.40;;;;;;;;;;5090630;28;20207;-74
2023/10/20 13:27:40;;;;;;;0.70;0.70;;;;;;;;;;5088468;28;20235;-77
2023/10/20 13:30:08;;;;;;;0.50;0.50;;;;;;;;;;5111352;28;20228;-76
2023/10/20 13:32:35;;;;;;;0.65;0.65;;;;;;;;;;5111504;28;20227;-75
2023/10/20 13:35:03;;;;;;;0.40;0.40;;;;;;;;;;5111122;28;20261;-75
2023/10/20 13:37:30;;;;;;;0.50;0.50;;;;;;;;;;5111761;28;20204;-74
2023/10/20 13:39:57;;;;;;;0.40;0.40;;;;;;;;;;5111088;28;20231;-76
2023/10/20 13:42:25;;;;;;;0.70;0.70;;;;;;;;;;5113900;28;20188;-75
2023/10/20 13:44:53;;;;;;;0.50;0.50;;;;;;;;;;5106761;28;20200;-75
2023/10/20 13:47:20;;;;;;;0.80;0.80;;;;;;;;;;5114964;28;20262;-76
2023/10/20 13:49:47;;;;;;;0.60;0.60;;;;;;;;;;5114823;28;20255;-75
2023/10/20 13:52:15;;;;;;;1.08;1.08;;;;;;;;;;5115444;28;20200;-74
2023/10/20 13:54:43;;;;;;;0.63;0.63;;;;;;;;;;5097197;28;20239;-75
2023/10/20 13:57:10;;;;;;;0.80;0.80;;;;;;;;;;5115342;28;20226;-74
2023/10/20 14:03:07;;;;;;;0.80;0.80;;;;;;;;;;5090191;28;20345;-75
2023/10/20 14:12:34;;;;;;;18.50;10.55;;;;;;;;;;5011355;28;20210;-76
2023/10/20 14:15:02;;;;;;;1.40;1.40;;;;;;;;;;5043652;28;20227;-76
2023/10/20 14:17:29;;;;;;;0.80;0.80;;;;;;;;;;5114081;28;20228;-75
2023/10/20 14:23:21;;;;;;;1.25;1.25;;;;;;;;;;5114142;28;20172;-74
2023/10/20 14:25:56;;;;;;;1.08;1.08;;;;;;;;;;5114582;28;20224;-76
2023/10/20 14:28:23;;;;;;;0.60;0.60;;;;;;;;;;5114537;28;20180;-76
2023/10/20 14:34:13;;;;;;;0.93;0.88;;;;;;;;;;5114381;28;20171;-75
2023/10/20 14:36:41;;;;;;;1.10;0.70;;;;;;;;;;5096335;28;20260;-75
2023/10/20 14:39:08;;;;;;;1.45;0.75;;;;;;;;;;5097941;28;20282;-74
2023/10/20 14:41:36;;;;;;;0.70;0.70;;;;;;;;;;5093352;28;20229;-75
2023/10/20 14:44:04;;;;;;;1.92;0.60;;;;;;;;;;5093283;28;20193;-74
2023/10/20 14:46:31;;;;;;;1.00;1.00;;;;;;;;;;5075750;28;20205;-75
2023/10/20 14:48:58;;;;;;;0.70;0.70;;;;;;;;;;5093196;28;20228;-76
2023/10/20 14:51:26;;;;;;;0.77;0.63;;;;;;;;;;5093259;28;20204;-76
2023/10/20 14:53:53;;;;;;;4.57;4.07;;;;;;;;;;5074960;28;20296;-75
2023/10/20 14:56:21;;;;;;;3.08;2.83;;;;;;;;;;5099428;28;20208;-76
2023/10/20 14:58:48;;;;;;;1.05;0.90;;;;;;;;;;5098889;28;20278;-75
2023/10/20 15:01:38;;;;;;;0.90;0.90;;;;;;;;;;5112596;28;20228;-73
2023/10/20 15:04:19;;;;;;;1.08;0.95;;;;;;;;;;5095373;28;20204;-75
2023/10/20 15:07:07;;;;;;;1.02;1.00;;;;;;;;;;5095518;28;20207;-75
2023/10/20 15:09:34;;;;;;;1.17;0.90;;;;;;;;;;5093454;28;20646;-74
2023/10/20 15:12:02;;;;;;;1.45;1.00;;;;;;;;;;5092841;28;20201;-77
2023/10/20 15:14:29;;;;;;;1.42;1.10;;;;;;;;;;5094694;28;20200;-74
2023/10/20 15:20:34;;;;;;;;;;;;;;;;;;;;;
2023/10/20 15:23:31;;;;;;;2.35;2.15;;;;;;;;;;5095687;28;20189;-75
2023/10/20 15:26:11;;;;;;;1.80;1.50;;;;;;;;;;5111422;27;20204;-75
2023/10/20 15:28:38;;;;;;;0.95;0.88;;;;;;;;;;5109577;28;20207;-77
2023/10/20 15:31:11;;;;;;;0.80;0.80;;;;;;;;;;5094800;28;20291;-75
2023/10/20 15:33:39;;;;;;;0.90;0.90;;;;;;;;;;5113768;28;20609;-75
2023/10/20 15:36:08;;;;;;;1.10;1.00;;;;;;;;;;5120927;27;20648;-76
2023/10/20 15:38:35;;;;;;;1.58;1.42;;;;;;;;;;5117636;27;20232;-74
2023/10/20 15:41:06;;;;;;;3.80;3.00;;;;;;;;;;5112850;27;20231;-76
2023/10/20 15:43:34;;;;;;;2.75;2.50;;;;;;;;;;5107741;27;20227;-75
2023/10/20 15:46:06;;;;;;;2.63;2.22;;;;;;;;;;5127758;27;20211;-76
2023/10/20 15:48:37;;;;;;;2.50;2.30;;;;;;;;;;5093914;28;20206;-77
2023/10/20 15:51:05;;;;;;;3.22;1.55;;;;;;;;;;5102866;28;20634;-75